sensor_id;sensor_type;location;lat;lon;timestamp;temperature;humidity
42201;DHT22;27869;51.442;7.540;2022-09-13T00:01:26;17.00;99.90
42201;DHT22;27869;51.442;7.540;2022-09-13T00:03:52;16.90;99.90
42201;DHT22;27869;51.442;7.540;2022-09-13T00:06:20;16.90;99.90
42201;DHT22;27869;51.442;7.540;2022-09-13T00:08:49;16.90;99.90
42201;DHT22;27869;51.442;7.540;2022-09-13T00:11:18;16.90;99.90
42201;DHT22;27869;51.442;7.540;2022-09-13T00:13:45;16.80;99.90
42201;DHT22;27869;51.442;7.540;2022-09-13T00:16:15;16.80;99.90
42201;DHT22;27869;51.442;7.540;2022-09-13T00:18:42;16.80;99.90
42201;DHT22;27869;51.442;7.540;2022-09-13T00:21:11;16.70;99.90
42201;DHT22;27869;51.442;7.540;2022-09-13T00:23:39;16.70;99.90
42201;DHT22;27869;51.442;7.540;2022-09-13T00:26:09;16.70;99.90
42201;DHT22;27869;51.442;7.540;2022-09-13T00:28:37;16.60;99.90
42201;DHT22;27869;51.442;7.540;2022-09-13T00:31:06;16.60;99.90
42201;DHT22;27869;51.442;7.540;2022-09-13T00:33:34;16.60;99.90
42201;DHT22;27869;51.442;7.540;2022-09-13T00:36:03;16.60;99.90
42201;DHT22;27869;51.442;7.540;2022-09-13T00:38:30;16.50;99.90
42201;DHT22;27869;51.442;7.540;2022-09-13T00:40:57;16.60;99.90
42201;DHT22;27869;51.442;7.540;2022-09-13T00:43:44;16.50;99.90
42201;DHT22;27869;51.442;7.540;2022-09-13T00:46:26;16.50;99.90
42201;DHT22;27869;51.442;7.540;2022-09-13T00:48:59;16.50;99.90
42201;DHT22;27869;51.442;7.540;2022-09-13T00:51:27;16.50;99.90
42201;DHT22;27869;51.442;7.540;2022-09-13T00:53:55;16.50;99.90
42201;DHT22;27869;51.442;7.540;2022-09-13T00:56:27;16.50;99.90
42201;DHT22;27869;51.442;7.540;2022-09-13T00:58:59;16.50;99.90
42201;DHT22;27869;51.442;7.540;2022-09-13T01:01:31;16.50;99.90
42201;DHT22;27869;51.442;7.540;2022-09-13T01:04:00;16.50;99.90
42201;DHT22;27869;51.442;7.540;2022-09-13T01:06:30;16.50;99.90
42201;DHT22;27869;51.442;7.540;2022-09-13T01:08:59;16.50;99.90
42201;DHT22;27869;51.442;7.540;2022-09-13T01:11:35;16.50;99.90
42201;DHT22;27869;51.442;7.540;2022-09-13T01:14:08;16.50;99.90
42201;DHT22;27869;51.442;7.540;2022-09-13T01:16:35;16.50;99.90
42201;DHT22;27869;51.442;7.540;2022-09-13T01:19:03;16.50;99.90
42201;DHT22;27869;51.442;7.540;2022-09-13T01:27:44;16.50;99.90
42201;DHT22;27869;51.442;7.540;2022-09-13T01:30:19;16.50;99.90
42201;DHT22;27869;51.442;7.540;2022-09-13T01:33:11;16.50;99.90
42201;DHT22;27869;51.442;7.540;2022-09-13T01:35:52;16.50;99.90
42201;DHT22;27869;51.442;7.540;2022-09-13T01:38:39;16.50;99.90
42201;DHT22;27869;51.442;7.540;2022-09-13T01:41:16;16.50;99.90
42201;DHT22;27869;51.442;7.540;2022-09-13T01:43:55;16.50;99.90
42201;DHT22;27869;51.442;7.540;2022-09-13T01:46:29;16.40;99.90
42201;DHT22;27869;51.442;7.540;2022-09-13T01:49:02;16.40;99.90
42201;DHT22;27869;51.442;7.540;2022-09-13T01:51:34;16.40;99.90
42201;DHT22;27869;51.442;7.540;2022-09-13T01:54:14;16.40;99.90
42201;DHT22;27869;51.442;7.540;2022-09-13T01:56:50;16.40;99.90
42201;DHT22;27869;51.442;7.540;2022-09-13T01:59:21;16.40;99.90
42201;DHT22;27869;51.442;7.540;2022-09-13T02:01:54;16.30;99.90
42201;DHT22;27869;51.442;7.540;2022-09-13T02:04:25;16.30;99.90
42201;DHT22;27869;51.442;7.540;2022-09-13T02:06:59;16.30;99.90
42201;DHT22;27869;51.442;7.540;2022-09-13T02:09:31;16.30;99.90
42201;DHT22;27869;51.442;7.540;2022-09-13T02:12:02;16.30;99.90
42201;DHT22;27869;51.442;7.540;2022-09-13T02:14:34;16.30;99.90
42201;DHT22;27869;51.442;7.540;2022-09-13T02:17:06;16.30;99.90
42201;DHT22;27869;51.442;7.540;2022-09-13T02:19:40;16.30;99.90
42201;DHT22;27869;51.442;7.540;2022-09-13T02:22:08;16.30;99.90
42201;DHT22;27869;51.442;7.540;2022-09-13T02:24:40;16.30;99.90
42201;DHT22;27869;51.442;7.540;2022-09-13T02:27:10;16.20;99.90
42201;DHT22;27869;51.442;7.540;2022-09-13T02:29:40;16.20;99.90
42201;DHT22;27869;51.442;7.540;2022-09-13T02:32:13;16.20;99.90
42201;DHT22;27869;51.442;7.540;2022-09-13T02:34:44;16.20;99.90
42201;DHT22;27869;51.442;7.540;2022-09-13T02:37:12;16.20;99.90
42201;DHT22;27869;51.442;7.540;2022-09-13T02:39:43;16.20;99.90
42201;DHT22;27869;51.442;7.540;2022-09-13T02:42:16;16.20;99.90
42201;DHT22;27869;51.442;7.540;2022-09-13T02:44:45;16.20;99.90
42201;DHT22;27869;51.442;7.540;2022-09-13T02:47:32;16.20;99.90
42201;DHT22;27869;51.442;7.540;2022-09-13T02:50:15;16.20;99.90
42201;DHT22;27869;51.442;7.540;2022-09-13T02:52:48;16.20;99.90
42201;DHT22;27869;51.442;7.540;2022-09-13T02:55:18;16.20;99.90
42201;DHT22;27869;51.442;7.540;2022-09-13T02:57:53;16.20;99.90
42201;DHT22;27869;51.442;7.540;2022-09-13T03:00:21;16.20;99.90
42201;DHT22;27869;51.442;7.540;2022-09-13T03:02:51;16.20;99.90
42201;DHT22;27869;51.442;7.540;2022-09-13T03:05:19;16.30;99.90
42201;DHT22;27869;51.442;7.540;2022-09-13T03:07:46;16.30;99.90
42201;DHT22;27869;51.442;7.540;2022-09-13T03:10:14;16.30;99.90
42201;DHT22;27869;51.442;7.540;2022-09-13T03:13:04;16.30;99.90
42201;DHT22;27869;51.442;7.540;2022-09-13T03:15:44;16.30;99.90
42201;DHT22;27869;51.442;7.540;2022-09-13T03:18:25;16.30;99.90
42201;DHT22;27869;51.442;7.540;2022-09-13T03:21:01;16.30;99.90
42201;DHT22;27869;51.442;7.540;2022-09-13T03:23:41;16.30;99.90
42201;DHT22;27869;51.442;7.540;2022-09-13T03:26:24;16.30;99.90
42201;DHT22;27869;51.442;7.540;2022-09-13T03:29:08;16.30;99.90
42201;DHT22;27869;51.442;7.540;2022-09-13T03:31:43;16.30;99.90
42201;DHT22;27869;51.442;7.540;2022-09-13T03:34:18;16.30;99.90
42201;DHT22;27869;51.442;7.540;2022-09-13T03:36:52;16.30;99.90
42201;DHT22;27869;51.442;7.540;2022-09-13T03:39:28;16.30;99.90
42201;DHT22;27869;51.442;7.540;2022-09-13T03:42:01;16.40;99.90
42201;DHT22;27869;51.442;7.540;2022-09-13T03:44:30;16.30;99.90
42201;DHT22;27869;51.442;7.540;2022-09-13T03:47:00;16.30;99.90
42201;DHT22;27869;51.442;7.540;2022-09-13T03:49:30;16.40;99.90
42201;DHT22;27869;51.442;7.540;2022-09-13T03:51:57;16.30;99.90
42201;DHT22;27869;51.442;7.540;2022-09-13T03:54:27;16.40;99.90
42201;DHT22;27869;51.442;7.540;2022-09-13T03:57:07;16.30;99.90
42201;DHT22;27869;51.442;7.540;2022-09-13T03:59:34;16.30;99.90
42201;DHT22;27869;51.442;7.540;2022-09-13T04:02:03;16.30;99.90
42201;DHT22;27869;51.442;7.540;2022-09-13T04:04:31;16.30;99.90
42201;DHT22;27869;51.442;7.540;2022-09-13T04:06:58;16.30;99.90
42201;DHT22;27869;51.442;7.540;2022-09-13T04:09:28;16.30;99.90
42201;DHT22;27869;51.442;7.540;2022-09-13T04:11:55;16.30;99.90
42201;DHT22;27869;51.442;7.540;2022-09-13T04:14:21;16.30;99.90
42201;DHT22;27869;51.442;7.540;2022-09-13T04:16:50;16.40;99.90
42201;DHT22;27869;51.442;7.540;2022-09-13T04:19:17;16.30;99.90
42201;DHT22;27869;51.442;7.540;2022-09-13T04:21:47;16.30;99.90
42201;DHT22;27869;51.442;7.540;2022-09-13T04:24:15;16.30;99.90
42201;DHT22;27869;51.442;7.540;2022-09-13T04:26:42;16.30;99.90
42201;DHT22;27869;51.442;7.540;2022-09-13T04:29:09;16.30;99.90
42201;DHT22;27869;51.442;7.540;2022-09-13T04:31:36;16.30;99.90
42201;DHT22;27869;51.442;7.540;2022-09-13T04:34:03;16.40;99.90
42201;DHT22;27869;51.442;7.540;2022-09-13T04:36:31;16.30;99.90
42201;DHT22;27869;51.442;7.540;2022-09-13T04:38:59;16.30;99.90
42201;DHT22;27869;51.442;7.540;2022-09-13T04:41:27;16.40;99.90
42201;DHT22;27869;51.442;7.540;2022-09-13T04:43:54;16.40;99.90
42201;DHT22;27869;51.442;7.540;2022-09-13T04:46:21;16.40;99.90
42201;DHT22;27869;51.442;7.540;2022-09-13T04:48:48;16.30;99.90
42201;DHT22;27869;51.442;7.540;2022-09-13T04:51:16;16.40;99.90
42201;DHT22;27869;51.442;7.540;2022-09-13T04:53:43;16.30;99.90
42201;DHT22;27869;51.442;7.540;2022-09-13T04:56:11;16.30;99.90
42201;DHT22;27869;51.442;7.540;2022-09-13T04:58:40;16.40;99.90
42201;DHT22;27869;51.442;7.540;2022-09-13T05:01:08;16.40;99.90
42201;DHT22;27869;51.442;7.540;2022-09-13T05:03:36;16.30;99.90
42201;DHT22;27869;51.442;7.540;2022-09-13T05:06:04;16.40;99.90
42201;DHT22;27869;51.442;7.540;2022-09-13T05:08:31;16.40;99.90
42201;DHT22;27869;51.442;7.540;2022-09-13T05:10:59;16.40;99.90
42201;DHT22;27869;51.442;7.540;2022-09-13T05:13:27;16.40;99.90
42201;DHT22;27869;51.442;7.540;2022-09-13T05:15:54;16.40;99.90
42201;DHT22;27869;51.442;7.540;2022-09-13T05:18:22;16.40;99.90
42201;DHT22;27869;51.442;7.540;2022-09-13T05:20:49;16.40;99.90
42201;DHT22;27869;51.442;7.540;2022-09-13T05:23:15;16.40;99.90
42201;DHT22;27869;51.442;7.540;2022-09-13T05:25:42;16.40;99.90
42201;DHT22;27869;51.442;7.540;2022-09-13T05:28:09;16.50;99.90
42201;DHT22;27869;51.442;7.540;2022-09-13T05:30:37;16.50;99.90
42201;DHT22;27869;51.442;7.540;2022-09-13T05:33:04;16.50;99.90
42201;DHT22;27869;51.442;7.540;2022-09-13T05:35:31;16.50;99.90
42201;DHT22;27869;51.442;7.540;2022-09-13T05:37:58;16.50;99.90
42201;DHT22;27869;51.442;7.540;2022-09-13T05:40:25;16.50;99.90
42201;DHT22;27869;51.442;7.540;2022-09-13T05:42:52;16.60;99.90
42201;DHT22;27869;51.442;7.540;2022-09-13T05:45:19;16.60;99.90
42201;DHT22;27869;51.442;7.540;2022-09-13T05:47:50;16.60;99.90
42201;DHT22;27869;51.442;7.540;2022-09-13T05:50:17;16.60;99.90
42201;DHT22;27869;51.442;7.540;2022-09-13T05:52:50;16.60;99.90
42201;DHT22;27869;51.442;7.540;2022-09-13T05:55:17;16.60;99.90
42201;DHT22;27869;51.442;7.540;2022-09-13T05:57:44;16.70;99.90
42201;DHT22;27869;51.442;7.540;2022-09-13T06:00:12;16.70;99.90
42201;DHT22;27869;51.442;7.540;2022-09-13T06:02:40;16.70;99.90
42201;DHT22;27869;51.442;7.540;2022-09-13T06:05:09;16.70;99.90
42201;DHT22;27869;51.442;7.540;2022-09-13T06:07:38;16.70;99.90
42201;DHT22;27869;51.442;7.540;2022-09-13T06:10:06;16.70;99.90
42201;DHT22;27869;51.442;7.540;2022-09-13T06:12:34;16.70;99.90
42201;DHT22;27869;51.442;7.540;2022-09-13T06:15:00;16.70;99.90
42201;DHT22;27869;51.442;7.540;2022-09-13T06:17:27;16.70;99.90
42201;DHT22;27869;51.442;7.540;2022-09-13T06:19:54;16.70;99.90
42201;DHT22;27869;51.442;7.540;2022-09-13T06:22:23;16.80;99.90
42201;DHT22;27869;51.442;7.540;2022-09-13T06:24:49;16.80;99.90
42201;DHT22;27869;51.442;7.540;2022-09-13T06:27:16;16.80;99.90
42201;DHT22;27869;51.442;7.540;2022-09-13T06:29:43;16.80;99.90
42201;DHT22;27869;51.442;7.540;2022-09-13T06:32:10;16.80;99.90
42201;DHT22;27869;51.442;7.540;2022-09-13T06:34:37;16.80;99.90
42201;DHT22;27869;51.442;7.540;2022-09-13T06:37:04;16.90;99.90
42201;DHT22;27869;51.442;7.540;2022-09-13T06:39:32;16.90;99.90
42201;DHT22;27869;51.442;7.540;2022-09-13T06:41:59;16.90;99.90
42201;DHT22;27869;51.442;7.540;2022-09-13T06:44:26;17.00;99.90
42201;DHT22;27869;51.442;7.540;2022-09-13T06:46:53;17.00;99.90
42201;DHT22;27869;51.442;7.540;2022-09-13T06:49:20;17.00;99.90
42201;DHT22;27869;51.442;7.540;2022-09-13T06:51:47;17.00;99.90
42201;DHT22;27869;51.442;7.540;2022-09-13T06:54:14;17.10;99.90
42201;DHT22;27869;51.442;7.540;2022-09-13T06:56:43;17.10;99.90
42201;DHT22;27869;51.442;7.540;2022-09-13T06:59:09;17.10;99.90
42201;DHT22;27869;51.442;7.540;2022-09-13T07:01:38;17.10;99.90
42201;DHT22;27869;51.442;7.540;2022-09-13T07:04:06;17.20;99.90
42201;DHT22;27869;51.442;7.540;2022-09-13T07:06:35;17.20;99.90
42201;DHT22;27869;51.442;7.540;2022-09-13T07:09:03;17.20;99.90
42201;DHT22;27869;51.442;7.540;2022-09-13T07:11:33;17.20;99.90
42201;DHT22;27869;51.442;7.540;2022-09-13T07:14:01;17.30;99.90
42201;DHT22;27869;51.442;7.540;2022-09-13T07:16:29;17.30;99.90
42201;DHT22;27869;51.442;7.540;2022-09-13T07:18:57;17.30;99.90
42201;DHT22;27869;51.442;7.540;2022-09-13T07:21:24;17.30;99.90
42201;DHT22;27869;51.442;7.540;2022-09-13T07:23:52;17.40;99.90
42201;DHT22;27869;51.442;7.540;2022-09-13T07:26:20;17.40;99.90
42201;DHT22;27869;51.442;7.540;2022-09-13T07:28:48;17.50;99.90
42201;DHT22;27869;51.442;7.540;2022-09-13T07:31:19;17.50;99.90
42201;DHT22;27869;51.442;7.540;2022-09-13T07:33:47;17.60;99.90
42201;DHT22;27869;51.442;7.540;2022-09-13T07:36:14;17.60;99.90
42201;DHT22;27869;51.442;7.540;2022-09-13T07:38:42;17.80;99.90
42201;DHT22;27869;51.442;7.540;2022-09-13T07:41:12;17.80;99.90
42201;DHT22;27869;51.442;7.540;2022-09-13T07:43:39;17.90;99.90
42201;DHT22;27869;51.442;7.540;2022-09-13T07:46:07;18.00;99.90
42201;DHT22;27869;51.442;7.540;2022-09-13T07:48:37;18.10;99.90
42201;DHT22;27869;51.442;7.540;2022-09-13T07:51:06;18.20;99.90
42201;DHT22;27869;51.442;7.540;2022-09-13T07:53:34;18.20;99.90
42201;DHT22;27869;51.442;7.540;2022-09-13T07:56:02;18.30;99.90
42201;DHT22;27869;51.442;7.540;2022-09-13T07:58:30;18.50;99.90
42201;DHT22;27869;51.442;7.540;2022-09-13T08:01:03;18.50;99.90
42201;DHT22;27869;51.442;7.540;2022-09-13T08:03:31;18.70;99.90
42201;DHT22;27869;51.442;7.540;2022-09-13T08:06:00;18.70;99.90
42201;DHT22;27869;51.442;7.540;2022-09-13T08:08:27;18.80;99.90
42201;DHT22;27869;51.442;7.540;2022-09-13T08:10:55;19.00;99.90
42201;DHT22;27869;51.442;7.540;2022-09-13T08:13:23;19.00;99.90
42201;DHT22;27869;51.442;7.540;2022-09-13T08:15:50;19.10;99.90
42201;DHT22;27869;51.442;7.540;2022-09-13T08:18:18;19.10;99.90
42201;DHT22;27869;51.442;7.540;2022-09-13T08:20:45;19.20;99.90
42201;DHT22;27869;51.442;7.540;2022-09-13T08:23:13;19.20;99.90
42201;DHT22;27869;51.442;7.540;2022-09-13T08:25:40;19.30;99.90
42201;DHT22;27869;51.442;7.540;2022-09-13T08:28:08;19.40;99.90
42201;DHT22;27869;51.442;7.540;2022-09-13T08:30:36;19.50;99.90
42201;DHT22;27869;51.442;7.540;2022-09-13T08:33:04;19.50;99.90
42201;DHT22;27869;51.442;7.540;2022-09-13T08:35:31;19.60;99.90
42201;DHT22;27869;51.442;7.540;2022-09-13T08:37:58;19.70;99.90
42201;DHT22;27869;51.442;7.540;2022-09-13T08:40:29;19.80;99.90
42201;DHT22;27869;51.442;7.540;2022-09-13T08:43:04;20.00;99.90
42201;DHT22;27869;51.442;7.540;2022-09-13T08:45:32;20.10;99.90
42201;DHT22;27869;51.442;7.540;2022-09-13T08:48:02;20.20;99.90
42201;DHT22;27869;51.442;7.540;2022-09-13T08:50:33;20.30;99.90
42201;DHT22;27869;51.442;7.540;2022-09-13T08:53:17;20.50;99.90
42201;DHT22;27869;51.442;7.540;2022-09-13T08:55:52;20.60;99.90
42201;DHT22;27869;51.442;7.540;2022-09-13T08:58:53;20.70;99.90
42201;DHT22;27869;51.442;7.540;2022-09-13T09:01:38;20.80;99.90
42201;DHT22;27869;51.442;7.540;2022-09-13T09:04:14;20.90;99.90
42201;DHT22;27869;51.442;7.540;2022-09-13T09:06:45;21.00;99.90
42201;DHT22;27869;51.442;7.540;2022-09-13T09:09:15;21.10;99.90
42201;DHT22;27869;51.442;7.540;2022-09-13T09:11:49;21.20;99.90
42201;DHT22;27869;51.442;7.540;2022-09-13T09:14:21;21.40;99.90
42201;DHT22;27869;51.442;7.540;2022-09-13T09:16:53;21.50;99.90
42201;DHT22;27869;51.442;7.540;2022-09-13T09:19:24;21.60;99.90
42201;DHT22;27869;51.442;7.540;2022-09-13T09:21:53;21.70;99.90
42201;DHT22;27869;51.442;7.540;2022-09-13T09:24:21;21.80;99.90
42201;DHT22;27869;51.442;7.540;2022-09-13T09:26:52;21.80;99.90
42201;DHT22;27869;51.442;7.540;2022-09-13T09:29:20;21.90;99.90
42201;DHT22;27869;51.442;7.540;2022-09-13T09:32:07;22.00;99.90
42201;DHT22;27869;51.442;7.540;2022-09-13T09:34:47;22.20;99.90
42201;DHT22;27869;51.442;7.540;2022-09-13T09:37:19;22.30;99.90
42201;DHT22;27869;51.442;7.540;2022-09-13T09:39:47;22.40;99.90
42201;DHT22;27869;51.442;7.540;2022-09-13T09:42:19;22.50;99.90
42201;DHT22;27869;51.442;7.540;2022-09-13T09:44:50;22.60;99.90
42201;DHT22;27869;51.442;7.540;2022-09-13T09:47:19;22.70;99.90
42201;DHT22;27869;51.442;7.540;2022-09-13T09:49:50;22.80;99.90
42201;DHT22;27869;51.442;7.540;2022-09-13T09:52:36;22.90;99.90
42201;DHT22;27869;51.442;7.540;2022-09-13T09:55:17;23.00;99.90
42201;DHT22;27869;51.442;7.540;2022-09-13T09:57:54;23.10;99.90
42201;DHT22;27869;51.442;7.540;2022-09-13T10:00:23;23.20;99.90
42201;DHT22;27869;51.442;7.540;2022-09-13T10:02:54;23.20;99.90
42201;DHT22;27869;51.442;7.540;2022-09-13T10:05:22;23.30;99.90
42201;DHT22;27869;51.442;7.540;2022-09-13T10:07:57;23.40;99.90
42201;DHT22;27869;51.442;7.540;2022-09-13T10:10:32;23.50;99.90
42201;DHT22;27869;51.442;7.540;2022-09-13T10:13:04;23.70;99.90
42201;DHT22;27869;51.442;7.540;2022-09-13T10:15:33;23.80;99.90
42201;DHT22;27869;51.442;7.540;2022-09-13T10:18:15;23.90;99.90
42201;DHT22;27869;51.442;7.540;2022-09-13T10:20:58;24.00;99.90
42201;DHT22;27869;51.442;7.540;2022-09-13T10:23:26;24.10;99.90
42201;DHT22;27869;51.442;7.540;2022-09-13T10:26:05;24.20;99.90
42201;DHT22;27869;51.442;7.540;2022-09-13T10:28:40;24.20;99.90
42201;DHT22;27869;51.442;7.540;2022-09-13T10:31:10;24.40;99.90
42201;DHT22;27869;51.442;7.540;2022-09-13T10:33:39;24.50;99.90
42201;DHT22;27869;51.442;7.540;2022-09-13T10:36:12;24.70;99.90
42201;DHT22;27869;51.442;7.540;2022-09-13T10:38:41;24.80;99.90
42201;DHT22;27869;51.442;7.540;2022-09-13T10:41:21;24.80;99.90
42201;DHT22;27869;51.442;7.540;2022-09-13T10:43:56;24.80;99.90
42201;DHT22;27869;51.442;7.540;2022-09-13T10:46:24;24.90;99.90
42201;DHT22;27869;51.442;7.540;2022-09-13T10:48:52;24.90;99.90
42201;DHT22;27869;51.442;7.540;2022-09-13T10:51:33;24.90;99.90
42201;DHT22;27869;51.442;7.540;2022-09-13T10:56:50;25.00;99.90
42201;DHT22;27869;51.442;7.540;2022-09-13T10:59:21;25.10;99.90
42201;DHT22;27869;51.442;7.540;2022-09-13T11:02:04;25.20;99.90
42201;DHT22;27869;51.442;7.540;2022-09-13T11:05:08;25.30;99.90
42201;DHT22;27869;51.442;7.540;2022-09-13T11:07:49;25.30;99.90
42201;DHT22;27869;51.442;7.540;2022-09-13T11:10:26;25.30;99.90
42201;DHT22;27869;51.442;7.540;2022-09-13T11:13:02;25.30;99.90
42201;DHT22;27869;51.442;7.540;2022-09-13T11:15:42;25.40;99.90
42201;DHT22;27869;51.442;7.540;2022-09-13T11:18:31;25.40;99.90
42201;DHT22;27869;51.442;7.540;2022-09-13T11:21:11;25.50;99.90
42201;DHT22;27869;51.442;7.540;2022-09-13T11:24:11;25.50;99.90
42201;DHT22;27869;51.442;7.540;2022-09-13T11:26:48;25.60;99.90
42201;DHT22;27869;51.442;7.540;2022-09-13T11:29:29;25.70;99.90
42201;DHT22;27869;51.442;7.540;2022-09-13T11:32:07;25.70;99.90
42201;DHT22;27869;51.442;7.540;2022-09-13T11:34:46;25.80;99.90
42201;DHT22;27869;51.442;7.540;2022-09-13T11:37:28;25.90;99.90
42201;DHT22;27869;51.442;7.540;2022-09-13T11:40:14;25.90;99.90
42201;DHT22;27869;51.442;7.540;2022-09-13T11:42:49;25.90;99.90
42201;DHT22;27869;51.442;7.540;2022-09-13T11:45:22;25.80;99.90
42201;DHT22;27869;51.442;7.540;2022-09-13T11:50:57;25.90;99.90
42201;DHT22;27869;51.442;7.540;2022-09-13T11:56:22;25.90;99.90
42201;DHT22;27869;51.442;7.540;2022-09-13T11:58:53;25.90;99.90
42201;DHT22;27869;51.442;7.540;2022-09-13T12:01:24;25.90;99.90
42201;DHT22;27869;51.442;7.540;2022-09-13T12:03:56;25.90;99.90
42201;DHT22;27869;51.442;7.540;2022-09-13T12:06:30;25.90;99.90
42201;DHT22;27869;51.442;7.540;2022-09-13T12:09:04;25.90;99.90
42201;DHT22;27869;51.442;7.540;2022-09-13T12:11:33;25.90;99.90
42201;DHT22;27869;51.442;7.540;2022-09-13T12:14:04;25.80;99.90
42201;DHT22;27869;51.442;7.540;2022-09-13T12:16:33;25.90;99.90
42201;DHT22;27869;51.442;7.540;2022-09-13T12:19:04;25.90;99.90
42201;DHT22;27869;51.442;7.540;2022-09-13T12:21:36;25.90;99.90
42201;DHT22;27869;51.442;7.540;2022-09-13T12:24:12;25.90;99.90
42201;DHT22;27869;51.442;7.540;2022-09-13T12:26:46;25.90;99.90
42201;DHT22;27869;51.442;7.540;2022-09-13T12:29:17;25.80;99.90
42201;DHT22;27869;51.442;7.540;2022-09-13T12:31:46;25.90;99.90
42201;DHT22;27869;51.442;7.540;2022-09-13T12:34:19;25.90;99.90
42201;DHT22;27869;51.442;7.540;2022-09-13T12:40:08;25.80;99.50
42201;DHT22;27869;51.442;7.540;2022-09-13T12:42:59;25.70;99.70
42201;DHT22;27869;51.442;7.540;2022-09-13T12:48:53;25.80;99.90
42201;DHT22;27869;51.442;7.540;2022-09-13T12:51:34;25.80;99.60
42201;DHT22;27869;51.442;7.540;2022-09-13T12:54:35;25.80;99.90
42201;DHT22;27869;51.442;7.540;2022-09-13T12:57:27;25.80;99.40
42201;DHT22;27869;51.442;7.540;2022-09-13T13:00:09;25.90;99.90
42201;DHT22;27869;51.442;7.540;2022-09-13T13:02:39;25.90;99.70
42201;DHT22;27869;51.442;7.540;2022-09-13T13:05:19;25.90;99.90
42201;DHT22;27869;51.442;7.540;2022-09-13T13:07:51;25.90;99.70
42201;DHT22;27869;51.442;7.540;2022-09-13T13:10:27;25.80;99.90
42201;DHT22;27869;51.442;7.540;2022-09-13T13:13:09;25.80;99.90
42201;DHT22;27869;51.442;7.540;2022-09-13T13:18:46;25.70;99.90
42201;DHT22;27869;51.442;7.540;2022-09-13T13:21:33;25.50;99.90
42201;DHT22;27869;51.442;7.540;2022-09-13T13:26:48;25.50;99.90
42201;DHT22;27869;51.442;7.540;2022-09-13T13:29:18;25.50;99.90
42201;DHT22;27869;51.442;7.540;2022-09-13T13:32:16;25.40;99.90
42201;DHT22;27869;51.442;7.540;2022-09-13T13:34:45;25.30;99.90
42201;DHT22;27869;51.442;7.540;2022-09-13T13:37:32;25.30;99.90
42201;DHT22;27869;51.442;7.540;2022-09-13T13:40:11;25.20;99.90
42201;DHT22;27869;51.442;7.540;2022-09-13T13:42:38;25.10;99.90
42201;DHT22;27869;51.442;7.540;2022-09-13T13:45:23;25.10;99.90
42201;DHT22;27869;51.442;7.540;2022-09-13T13:48:06;25.10;99.90
42201;DHT22;27869;51.442;7.540;2022-09-13T13:50:34;25.10;99.90
42201;DHT22;27869;51.442;7.540;2022-09-13T13:53:19;25.00;99.90
42201;DHT22;27869;51.442;7.540;2022-09-13T13:55:47;25.00;99.90
42201;DHT22;27869;51.442;7.540;2022-09-13T13:58:26;25.00;99.90
42201;DHT22;27869;51.442;7.540;2022-09-13T14:00:58;24.90;99.90
42201;DHT22;27869;51.442;7.540;2022-09-13T14:03:35;24.90;99.90
42201;DHT22;27869;51.442;7.540;2022-09-13T14:06:11;24.90;99.90
42201;DHT22;27869;51.442;7.540;2022-09-13T14:08:53;24.90;99.90
42201;DHT22;27869;51.442;7.540;2022-09-13T14:11:35;24.90;99.90
42201;DHT22;27869;51.442;7.540;2022-09-13T14:14:16;24.90;99.90
42201;DHT22;27869;51.442;7.540;2022-09-13T14:16:58;24.90;99.90
42201;DHT22;27869;51.442;7.540;2022-09-13T14:19:28;25.00;99.90
42201;DHT22;27869;51.442;7.540;2022-09-13T14:22:20;25.00;99.90
42201;DHT22;27869;51.442;7.540;2022-09-13T14:24:49;25.10;99.90
42201;DHT22;27869;51.442;7.540;2022-09-13T14:27:18;25.00;99.90
42201;DHT22;27869;51.442;7.540;2022-09-13T14:29:48;25.00;99.90
42201;DHT22;27869;51.442;7.540;2022-09-13T14:32:19;25.00;99.90
42201;DHT22;27869;51.442;7.540;2022-09-13T14:34:58;25.00;99.90
42201;DHT22;27869;51.442;7.540;2022-09-13T14:37:28;25.00;99.90
42201;DHT22;27869;51.442;7.540;2022-09-13T14:39:57;25.00;99.90
42201;DHT22;27869;51.442;7.540;2022-09-13T14:42:25;25.00;99.90
42201;DHT22;27869;51.442;7.540;2022-09-13T14:44:52;25.00;99.90
42201;DHT22;27869;51.442;7.540;2022-09-13T14:47:26;25.00;99.90
42201;DHT22;27869;51.442;7.540;2022-09-13T14:49:59;25.00;99.90
42201;DHT22;27869;51.442;7.540;2022-09-13T14:52:31;25.00;99.90
42201;DHT22;27869;51.442;7.540;2022-09-13T14:55:01;24.90;99.90
42201;DHT22;27869;51.442;7.540;2022-09-13T14:57:31;24.90;99.90
42201;DHT22;27869;51.442;7.540;2022-09-13T15:00:02;24.90;99.90
42201;DHT22;27869;51.442;7.540;2022-09-13T15:02:35;24.90;99.90
42201;DHT22;27869;51.442;7.540;2022-09-13T15:05:05;24.90;99.90
42201;DHT22;27869;51.442;7.540;2022-09-13T15:07:35;24.90;99.90
42201;DHT22;27869;51.442;7.540;2022-09-13T15:10:06;24.80;99.90
42201;DHT22;27869;51.442;7.540;2022-09-13T15:12:34;24.80;99.90
42201;DHT22;27869;51.442;7.540;2022-09-13T15:15:32;24.70;99.90
42201;DHT22;27869;51.442;7.540;2022-09-13T15:18:03;24.70;99.90
42201;DHT22;27869;51.442;7.540;2022-09-13T15:20:44;24.60;99.90
42201;DHT22;27869;51.442;7.540;2022-09-13T15:23:14;24.60;99.90
42201;DHT22;27869;51.442;7.540;2022-09-13T15:25:47;24.60;99.90
42201;DHT22;27869;51.442;7.540;2022-09-13T15:28:27;24.60;99.90
42201;DHT22;27869;51.442;7.540;2022-09-13T15:30:55;24.60;99.90
42201;DHT22;27869;51.442;7.540;2022-09-13T15:33:27;24.60;99.90
42201;DHT22;27869;51.442;7.540;2022-09-13T15:36:25;24.50;99.90
42201;DHT22;27869;51.442;7.540;2022-09-13T15:38:58;24.50;99.90
42201;DHT22;27869;51.442;7.540;2022-09-13T15:41:28;24.50;99.90
42201;DHT22;27869;51.442;7.540;2022-09-13T15:43:56;24.50;99.90
42201;DHT22;27869;51.442;7.540;2022-09-13T15:46:23;24.50;99.90
42201;DHT22;27869;51.442;7.540;2022-09-13T15:48:53;24.40;99.90
42201;DHT22;27869;51.442;7.540;2022-09-13T15:51:20;24.40;99.90
42201;DHT22;27869;51.442;7.540;2022-09-13T15:53:48;24.40;99.90
42201;DHT22;27869;51.442;7.540;2022-09-13T15:56:17;24.30;99.90
42201;DHT22;27869;51.442;7.540;2022-09-13T15:58:45;24.30;99.90
42201;DHT22;27869;51.442;7.540;2022-09-13T16:01:12;24.30;99.90
42201;DHT22;27869;51.442;7.540;2022-09-13T16:03:40;24.20;99.90
42201;DHT22;27869;51.442;7.540;2022-09-13T16:06:09;24.20;99.90
42201;DHT22;27869;51.442;7.540;2022-09-13T16:08:37;24.10;99.90
42201;DHT22;27869;51.442;7.540;2022-09-13T16:11:05;24.00;99.90
42201;DHT22;27869;51.442;7.540;2022-09-13T16:13:33;24.00;99.90
42201;DHT22;27869;51.442;7.540;2022-09-13T16:16:01;24.00;99.90
42201;DHT22;27869;51.442;7.540;2022-09-13T16:18:29;24.00;99.90
42201;DHT22;27869;51.442;7.540;2022-09-13T16:20:56;23.90;99.90
42201;DHT22;27869;51.442;7.540;2022-09-13T16:23:24;23.80;99.90
42201;DHT22;27869;51.442;7.540;2022-09-13T16:25:54;23.80;99.90
42201;DHT22;27869;51.442;7.540;2022-09-13T16:28:22;23.80;99.90